6CO4 weather

Hat-Field STOLport
Fort Collins, Colorado, United States

Public forecast

Using degrees Fahrenheit for public forecast. Weather courtesy of forecast.io.

Closest aviation weather report (METAR) to Hat-Field STOLport

Closest report is Northern Colorado Regional Airport, 3.5 nm (6.6 km) S. Retrieved 2020/02/18 06:27 UTC (0 seconds ago):

KFNL 180627Z AUTO 21008KT 10SM SCT008 SCT090 OVC110 M04/M06 A3014 RMK AO2 FZRANO

Closest aviation forecast (TAF) to Hat-Field STOLport

Closest forecast is Rocky Mountain Metropolitan Airport, 36.5 nm (67.6 km) S. Retrieved 2020/02/18 06:36 UTC (0 seconds ago):

TAF KBJC 180535Z 1806/1906 14005KT P6SM BKN020 OVC030 TEMPO 1806/1809 3SM -SN BR BKN008 OVC016 FM181000 20004KT P6SM SCT015 BKN060 FM181700 11006KT P6SM SCT060 FM190300 VRB05KT P6SM SCT020 BKN040